Time;durP1;ratioP1;P1;durP2;ratioP2;P2;SDS_P1;SDS_P2;PMS_P1;PMS_P2;Temp;Humidity;BMP_temperature;BMP_pressure;BME280_temperature;BME280_humidity;BME280_pressure;Samples;Min_cycle;Max_cycle;Signal;HPM_P1;HPM_P2
2023/02/12 00:01:41;;;;;;;12.25;7.85;;;6.50;99.90;;;;;;5039859;28;20401;-83
2023/02/12 00:04:07;;;;;;;17.50;9.53;;;6.50;99.90;;;;;;5041869;28;20376;-84
2023/02/12 00:06:33;;;;;;;21.10;10.40;;;6.40;99.90;;;;;;5039019;28;20484;-83
2023/02/12 00:09:02;;;;;;;19.17;9.87;;;6.50;99.90;;;;;;5031629;28;20406;-84
2023/02/12 00:11:28;;;;;;;19.00;8.98;;;6.40;99.90;;;;;;5029293;28;20449;-84
2023/02/12 00:13:55;;;;;;;16.42;9.30;;;6.40;99.90;;;;;;5027801;28;20409;-84
2023/02/12 00:16:25;;;;;;;22.27;10.20;;;6.40;99.90;;;;;;5030586;28;20503;-84
2023/02/12 00:18:53;;;;;;;18.77;9.63;;;6.40;99.90;;;;;;5028967;28;20432;-84
2023/02/12 00:21:20;;;;;;;18.63;9.77;;;6.30;99.90;;;;;;5027542;28;20908;-84
2023/02/12 00:23:46;;;;;;;20.92;10.43;;;6.30;99.90;;;;;;5030316;28;20441;-83
2023/02/12 00:26:15;;;;;;;17.83;10.20;;;6.40;99.90;;;;;;5029692;28;20409;-83
2023/02/12 00:28:41;;;;;;;19.65;9.68;;;6.30;99.90;;;;;;5026430;28;20892;-84
2023/02/12 00:31:17;;;;;;;25.13;10.70;;;6.50;99.90;;;;;;5034795;28;20408;-84
2023/02/12 00:33:44;;;;;;;18.63;9.40;;;6.50;99.90;;;;;;5021281;28;20515;-83
2023/02/12 00:36:15;;;;;;;22.27;10.73;;;6.50;99.90;;;;;;5035131;28;20425;-84
2023/02/12 00:38:42;;;;;;;19.58;9.80;;;6.50;99.90;;;;;;5029257;28;20378;-83
2023/02/12 00:41:10;;;;;;;26.23;10.50;;;6.40;99.90;;;;;;5011955;28;20455;-83
2023/02/12 00:43:35;;;;;;;22.87;10.70;;;6.30;99.90;;;;;;5027834;28;20534;-84
2023/02/12 00:46:01;;;;;;;22.00;10.70;;;6.30;99.90;;;;;;5027598;28;20583;-83
2023/02/12 00:48:27;;;;;;;23.23;11.00;;;6.30;99.90;;;;;;5010561;28;20388;-83
2023/02/12 00:50:53;;;;;;;25.08;11.48;;;6.30;99.90;;;;;;5028174;28;20432;-83
2023/02/12 00:53:18;;;;;;;25.52;11.50;;;6.20;99.90;;;;;;5028236;28;20385;-83
2023/02/12 00:55:44;;;;;;;23.30;10.60;;;6.20;99.90;;;;;;5028653;28;20398;-85
2023/02/12 00:58:11;;;;;;;32.33;12.32;;;6.50;99.90;;;;;;5027694;28;20778;-84
2023/02/12 01:00:37;;;;;;;26.20;10.93;;;6.30;99.90;;;;;;5028618;28;20460;-83
2023/02/12 01:03:03;;;;;;;30.77;12.07;;;6.20;99.90;;;;;;5029791;28;20399;-83
2023/02/12 01:05:30;;;;;;;30.05;11.45;;;6.20;99.90;;;;;;5029750;28;20428;-84
2023/02/12 01:07:56;;;;;;;30.17;11.13;;;6.20;99.90;;;;;;5026679;28;20465;-84
2023/02/12 01:10:23;;;;;;;22.58;9.40;;;6.40;99.90;;;;;;5029680;28;20413;-82
2023/02/12 01:12:49;;;;;;;29.73;10.33;;;6.40;99.90;;;;;;5029212;28;20377;-83
2023/02/12 01:15:16;;;;;;;25.38;10.70;;;6.40;99.90;;;;;;5029642;28;20389;-82
2023/02/12 01:20:11;;;;;;;27.20;10.23;;;6.50;99.90;;;;;;5292407;22;20462;-82
2023/02/12 01:22:37;;;;;;;24.35;9.70;;;6.50;99.90;;;;;;5032090;28;20385;-83
2023/02/12 01:25:05;;;;;;;26.25;10.75;;;6.40;99.90;;;;;;5031428;28;20440;-82
2023/02/12 01:27:31;;;;;;;25.73;10.38;;;6.40;99.90;;;;;;5026184;28;20393;-82
2023/02/12 01:29:56;;;;;;;23.92;9.95;;;6.40;99.90;;;;;;5024831;28;20393;-82
2023/02/12 01:32:22;;;;;;;24.85;10.50;;;6.60;99.90;;;;;;5028770;28;20450;-82
2023/02/12 01:34:49;;;;;;;32.08;10.70;;;6.50;99.90;;;;;;5026484;28;20412;-82
2023/02/12 01:37:15;;;;;;;20.43;10.07;;;6.50;99.90;;;;;;5026387;28;20467;-82
2023/02/12 01:39:41;;;;;;;22.07;9.73;;;6.50;99.90;;;;;;5022198;28;20417;-82
2023/02/12 01:42:13;;;;;;;22.50;10.57;;;6.50;99.90;;;;;;5017709;28;21148;-82
2023/02/12 01:45:11;;;;;;;23.03;9.30;;;6.50;99.90;;;;;;5000030;28;20416;-82
2023/02/12 01:47:39;;;;;;;23.90;10.38;;;6.40;99.90;;;;;;5004166;28;20411;-82
2023/02/12 01:50:07;;;;;;;24.10;9.50;;;6.30;99.90;;;;;;5023167;28;20456;-82
2023/02/12 01:52:36;;;;;;;25.17;10.90;;;6.20;99.90;;;;;;5025388;28;20409;-83
2023/02/12 01:55:09;;;;;;;25.48;11.50;;;6.20;99.90;;;;;;5024393;28;20397;-82
2023/02/12 01:57:39;;;;;;;26.00;11.60;;;6.10;99.90;;;;;;5022674;28;20476;-81
2023/02/12 02:00:11;;;;;;;25.90;11.05;;;6.30;99.90;;;;;;5026044;28;20444;-82
2023/02/12 02:02:38;;;;;;;26.65;11.40;;;6.50;99.90;;;;;;5026170;28;20416;-81
2023/02/12 02:05:05;;;;;;;24.92;11.38;;;6.40;99.90;;;;;;5026425;28;20484;-82
2023/02/12 02:07:32;;;;;;;21.75;10.10;;;6.40;99.90;;;;;;5023512;28;20495;-81
2023/02/12 02:09:58;;;;;;;18.90;9.82;;;6.50;99.90;;;;;;5022768;28;20401;-82
2023/02/12 02:15:10;;;;;;;19.20;9.55;;;6.60;99.90;;;;;;5028424;28;20509;-82
2023/02/12 02:17:49;;;;;;;21.70;9.98;;;6.50;99.90;;;;;;5026950;28;20397;-82
2023/02/12 02:20:52;;;;;;;20.67;10.27;;;6.60;99.90;;;;;;5016292;28;21119;-82
2023/02/12 02:23:20;;;;;;;22.10;11.33;;;6.50;99.90;;;;;;5000908;28;20397;-83
2023/02/12 02:26:05;;;;;;;22.85;11.20;;;6.60;99.90;;;;;;4998042;28;20421;-82
2023/02/12 02:28:46;;;;;;;20.70;11.23;;;6.60;99.90;;;;;;5000212;28;20929;-83
2023/02/12 02:31:30;;;;;;;29.48;12.05;;;6.70;99.90;;;;;;4990221;28;20516;-82
2023/02/12 02:34:18;;;;;;;27.90;12.13;;;6.70;99.90;;;;;;4999519;28;20398;-82
2023/02/12 02:36:55;;;;;;;29.60;12.85;;;6.40;99.90;;;;;;5002519;28;20533;-82
2023/02/12 02:39:44;;;;;;;35.03;13.98;;;6.20;99.90;;;;;;5026917;28;20409;-81
2023/02/12 02:42:18;;;;;;;30.77;13.38;;;6.20;99.90;;;;;;5019677;28;20414;-82
2023/02/12 02:45:33;;;;;;;35.22;15.25;;;6.10;99.90;;;;;;5028708;28;20413;-82
2023/02/12 02:48:25;;;;;;;35.00;15.43;;;6.00;99.90;;;;;;5025198;28;20540;-82
2023/02/12 02:50:57;;;;;;;38.35;16.48;;;6.00;99.90;;;;;;5013512;28;20493;-82
2023/02/12 02:53:32;;;;;;;30.10;14.10;;;6.00;99.90;;;;;;5027852;28;20496;-81
2023/02/12 02:56:00;;;;;;;33.38;15.30;;;6.10;99.90;;;;;;5027489;28;20405;-81
2023/02/12 02:58:34;;;;;;;36.13;15.75;;;6.10;99.90;;;;;;5026794;28;20408;-83
2023/02/12 03:01:08;;;;;;;35.35;16.05;;;6.00;99.90;;;;;;5025855;28;20494;-81
2023/02/12 03:04:03;;;;;;;41.55;15.57;;;6.10;99.90;;;;;;5028155;28;20556;-82
2023/02/12 03:06:38;;;;;;;42.45;16.60;;;5.90;99.90;;;;;;5027112;28;20412;-82
2023/02/12 03:09:30;;;;;;;47.80;17.85;;;6.00;99.90;;;;;;5025825;28;20760;-82
2023/02/12 03:12:00;;;;;;;33.05;15.25;;;5.90;99.90;;;;;;5017548;28;20406;-81
2023/02/12 03:14:31;;;;;;;33.97;14.95;;;6.10;99.90;;;;;;5026385;28;20429;-82
2023/02/12 03:16:59;;;;;;;45.13;17.30;;;6.10;99.90;;;;;;5025318;28;20459;-81
2023/02/12 03:19:28;;;;;;;39.05;17.05;;;6.00;99.90;;;;;;5026713;28;20401;-82
2023/02/12 03:21:59;;;;;;;35.60;15.83;;;6.00;99.90;;;;;;5025313;28;20864;-82
2023/02/12 03:24:39;;;;;;;36.90;16.75;;;6.20;99.90;;;;;;5028361;28;20778;-82
2023/02/12 03:27:14;;;;;;;38.00;16.05;;;6.10;99.90;;;;;;5025774;28;20405;-80
2023/02/12 03:29:39;;;;;;;38.30;15.65;;;6.10;99.90;;;;;;5046221;28;20430;-82
2023/02/12 03:32:26;;;;;;;37.90;15.30;;;6.00;99.90;;;;;;5039833;28;20384;-82
2023/02/12 03:35:07;;;;;;;41.47;16.02;;;6.00;99.90;;;;;;5047954;28;20394;-82
2023/02/12 03:37:40;;;;;;;37.40;15.85;;;6.10;99.90;;;;;;5046101;28;20380;-83
2023/02/12 03:40:24;;;;;;;41.50;16.40;;;5.90;99.90;;;;;;5047943;28;20386;-82
2023/02/12 03:43:03;;;;;;;34.47;15.07;;;5.90;99.90;;;;;;5048168;28;20466;-81
2023/02/12 03:45:48;;;;;;;38.10;16.50;;;5.90;99.90;;;;;;5032082;28;20901;-81
2023/02/12 03:48:36;;;;;;;31.25;13.55;;;6.00;99.90;;;;;;5028707;28;20471;-82
2023/02/12 03:51:29;;;;;;;31.00;14.65;;;6.20;99.90;;;;;;5031472;28;20401;-82
2023/02/12 03:53:56;;;;;;;33.47;14.70;;;6.20;99.90;;;;;;5030018;28;20438;-82
2023/02/12 03:56:30;;;;;;;40.17;15.82;;;6.10;99.90;;;;;;5031720;28;20389;-82
2023/02/12 03:58:56;;;;;;;32.55;14.00;;;6.10;99.90;;;;;;5013414;28;20381;-82
2023/02/12 04:01:22;;;;;;;26.30;13.67;;;6.10;99.90;;;;;;5031136;28;20393;-82
2023/02/12 04:03:48;;;;;;;27.15;13.43;;;6.20;99.90;;;;;;5031281;28;20824;-81
2023/02/12 04:06:25;;;;;;;39.47;14.87;;;6.30;99.90;;;;;;5031036;28;20397;-82
2023/02/12 04:08:54;;;;;;;29.63;13.40;;;6.20;99.90;;;;;;5027507;28;20413;-81
2023/02/12 04:11:30;;;;;;;35.65;14.35;;;6.20;99.90;;;;;;5030601;28;20455;-82
2023/02/12 04:14:04;;;;;;;28.83;13.20;;;6.10;99.90;;;;;;5029640;28;20409;-81
2023/02/12 04:16:34;;;;;;;21.42;10.73;;;6.30;99.90;;;;;;5030894;28;20373;-83
2023/02/12 04:19:00;;;;;;;30.17;13.47;;;6.30;99.90;;;;;;5032555;28;20394;-82
2023/02/12 04:21:42;;;;;;;26.85;12.40;;;6.30;99.90;;;;;;5041213;28;20428;-82
2023/02/12 04:24:47;;;;;;;23.33;11.00;;;6.40;99.90;;;;;;5011570;28;20383;-82
2023/02/12 04:27:28;;;;;;;18.45;9.80;;;6.40;99.90;;;;;;5016384;28;20453;-82
2023/02/12 04:30:05;;;;;;;21.88;11.20;;;6.40;99.90;;;;;;5049491;28;20418;-83
2023/02/12 04:32:49;;;;;;;27.83;12.40;;;6.40;99.90;;;;;;5043981;28;20432;-82
2023/02/12 04:35:19;;;;;;;24.90;12.23;;;6.20;99.90;;;;;;5031329;28;20505;-82
2023/02/12 04:37:54;;;;;;;22.85;11.77;;;6.10;99.90;;;;;;5030836;28;20377;-82
2023/02/12 04:40:21;;;;;;;30.30;12.63;;;6.10;99.90;;;;;;5030732;28;20386;-83
2023/02/12 04:42:48;;;;;;;35.00;13.57;;;6.20;99.90;;;;;;5029393;28;20489;-82
2023/02/12 04:45:20;;;;;;;24.52;11.45;;;6.20;99.90;;;;;;5041792;28;20419;-82
2023/02/12 04:47:46;;;;;;;24.10;10.85;;;6.20;99.90;;;;;;5050802;28;20453;-82
2023/02/12 04:50:12;;;;;;;20.40;10.13;;;6.30;99.90;;;;;;5049387;28;20387;-82
2023/02/12 04:52:38;;;;;;;26.43;11.50;;;6.30;99.90;;;;;;5051209;28;20890;-81
2023/02/12 04:55:04;;;;;;;21.77;9.97;;;6.30;99.90;;;;;;5051521;28;20368;-82
2023/02/12 04:57:29;;;;;;;22.77;10.80;;;6.40;99.90;;;;;;5031693;28;20540;-82
2023/02/12 04:59:55;;;;;;;19.15;9.43;;;6.40;99.90;;;;;;5030545;28;20828;-82
2023/02/12 05:02:21;;;;;;;19.13;9.55;;;6.40;99.90;;;;;;5030837;28;20432;-82
2023/02/12 05:04:49;;;;;;;19.80;9.77;;;6.40;99.90;;;;;;5030541;28;20403;-81
2023/02/12 05:07:15;;;;;;;20.83;9.00;;;6.40;99.90;;;;;;5030507;28;20390;-83
2023/02/12 05:09:41;;;;;;;21.85;9.02;;;6.40;99.90;;;;;;5030206;28;20390;-82
2023/02/12 05:12:07;;;;;;;15.55;8.02;;;6.40;99.90;;;;;;5030233;28;20435;-82
2023/02/12 05:14:33;;;;;;;17.05;8.38;;;6.20;99.90;;;;;;5030615;28;20382;-82
2023/02/12 05:16:58;;;;;;;25.23;11.00;;;6.20;99.90;;;;;;5029816;28;20536;-82
2023/02/12 05:19:24;;;;;;;26.63;11.48;;;6.20;99.90;;;;;;5030556;28;20389;-81
2023/02/12 05:21:50;;;;;;;25.30;10.57;;;6.30;99.90;;;;;;5041784;28;20376;-82
2023/02/12 05:24:16;;;;;;;24.83;10.60;;;6.20;99.90;;;;;;5050561;28;20441;-82
2023/02/12 05:26:42;;;;;;;23.92;10.63;;;6.40;99.90;;;;;;5049041;28;20391;-82
2023/02/12 05:29:07;;;;;;;19.73;9.80;;;6.20;99.90;;;;;;5048624;28;20725;-82
2023/02/12 05:31:33;;;;;;;16.93;8.17;;;6.20;99.90;;;;;;5032941;28;20831;-83
2023/02/12 05:33:59;;;;;;;21.70;9.88;;;6.20;99.90;;;;;;5029351;28;20382;-82
2023/02/12 05:36:25;;;;;;;22.67;10.40;;;6.10;99.90;;;;;;5029719;28;20879;-82
2023/02/12 05:38:52;;;;;;;14.40;8.63;;;6.00;99.90;;;;;;5011496;28;20389;-83
2023/02/12 05:41:20;;;;;;;17.23;8.80;;;6.00;99.90;;;;;;5025919;28;20441;-82
2023/02/12 05:43:47;;;;;;;16.55;8.43;;;6.10;99.90;;;;;;5027331;28;20427;-84
2023/02/12 05:46:13;;;;;;;24.35;9.60;;;6.10;99.90;;;;;;5027783;28;20405;-83
2023/02/12 05:48:39;;;;;;;18.02;8.90;;;6.20;99.90;;;;;;5031173;28;20393;-81
2023/02/12 05:51:18;;;;;;;18.70;9.45;;;6.20;99.90;;;;;;5025431;28;20473;-82
2023/02/12 05:53:44;;;;;;;29.70;13.30;;;6.40;99.90;;;;;;5032635;28;20460;-82
2023/02/12 05:56:25;;;;;;;18.77;9.70;;;6.20;99.90;;;;;;5047686;28;20376;-83
2023/02/12 05:58:53;;;;;;;22.87;11.37;;;6.20;99.90;;;;;;5034232;28;20469;-82
2023/02/12 06:01:22;;;;;;;20.17;10.02;;;6.20;99.90;;;;;;5030056;28;20475;-82
2023/02/12 06:03:48;;;;;;;29.38;11.85;;;6.10;99.90;;;;;;5028764;28;20469;-82
2023/02/12 06:06:14;;;;;;;29.13;11.67;;;6.10;99.90;;;;;;5029153;28;20496;-82
2023/02/12 06:08:40;;;;;;;29.10;12.27;;;6.10;99.90;;;;;;5028776;28;20381;-82
2023/02/12 06:11:09;;;;;;;23.43;10.93;;;6.00;99.90;;;;;;5028588;28;21134;-82
2023/02/12 06:13:35;;;;;;;28.13;11.73;;;6.00;99.90;;;;;;5029888;28;20386;-82
2023/02/12 06:16:01;;;;;;;23.83;10.70;;;6.00;99.90;;;;;;5028823;28;20443;-82
2023/02/12 06:18:27;;;;;;;23.67;10.53;;;6.10;99.90;;;;;;5028557;28;20469;-83
2023/02/12 06:20:55;;;;;;;25.53;11.53;;;6.20;99.90;;;;;;5029239;28;20837;-83
2023/02/12 06:23:22;;;;;;;20.27;9.98;;;6.30;99.90;;;;;;5029356;28;20393;-83
2023/02/12 06:25:49;;;;;;;22.73;9.30;;;6.20;99.90;;;;;;5029657;28;20885;-82
2023/02/12 06:28:16;;;;;;;20.27;10.10;;;6.30;99.90;;;;;;5027459;28;20385;-80
2023/02/12 06:30:42;;;;;;;19.50;10.32;;;6.40;99.90;;;;;;5029061;28;20416;-82
2023/02/12 06:33:07;;;;;;;19.02;10.30;;;6.20;99.90;;;;;;5029091;28;20406;-82
2023/02/12 06:35:37;;;;;;;21.63;11.35;;;6.10;99.90;;;;;;5029250;28;20728;-83
2023/02/12 06:38:06;;;;;;;23.88;12.48;;;6.00;99.90;;;;;;5028888;28;20887;-82
2023/02/12 06:40:32;;;;;;;22.48;11.38;;;5.90;99.90;;;;;;5028865;28;20380;-82
2023/02/12 06:42:58;;;;;;;30.20;12.15;;;6.10;99.90;;;;;;5028712;28;20385;-80
2023/02/12 06:45:24;;;;;;;19.05;10.43;;;6.10;99.90;;;;;;5027772;28;20395;-82
2023/02/12 06:47:50;;;;;;;26.00;11.77;;;6.30;99.90;;;;;;5046230;28;20451;-82
2023/02/12 06:50:16;;;;;;;23.15;11.23;;;6.30;99.90;;;;;;5048760;28;20376;-82
2023/02/12 06:52:41;;;;;;;17.70;11.05;;;6.30;99.90;;;;;;5047447;28;20722;-82
2023/02/12 06:55:07;;;;;;;24.50;11.13;;;6.30;99.90;;;;;;5044554;28;20389;-82
2023/02/12 06:57:33;;;;;;;27.23;12.53;;;6.30;99.90;;;;;;5027819;28;20392;-81
2023/02/12 06:59:58;;;;;;;24.17;12.40;;;6.20;99.90;;;;;;5028181;28;20382;-81
2023/02/12 07:02:24;;;;;;;30.67;14.98;;;6.30;99.90;;;;;;5027374;28;20388;-82
2023/02/12 07:04:50;;;;;;;25.75;12.73;;;6.20;99.90;;;;;;5028444;28;20893;-81
2023/02/12 07:07:15;;;;;;;25.53;15.77;;;6.30;99.90;;;;;;5028793;28;20405;-82
2023/02/12 07:09:41;;;;;;;23.93;11.90;;;6.40;99.90;;;;;;5028456;28;20495;-82
2023/02/12 07:12:07;;;;;;;20.38;10.70;;;6.40;99.90;;;;;;5028478;28;20468;-81
2023/02/12 07:14:33;;;;;;;23.85;11.77;;;6.50;99.90;;;;;;5028316;28;20887;-82
2023/02/12 07:17:02;;;;;;;22.67;10.98;;;6.60;99.90;;;;;;5028465;28;20381;-81
2023/02/12 07:19:28;;;;;;;21.02;10.73;;;6.60;99.90;;;;;;5028608;28;20489;-82
2023/02/12 07:21:54;;;;;;;21.75;11.85;;;6.70;99.90;;;;;;5031051;28;20373;-81
2023/02/12 07:24:20;;;;;;;21.87;11.33;;;6.90;99.90;;;;;;5015019;28;20461;-82
2023/02/12 07:26:45;;;;;;;26.80;13.00;;;6.90;99.90;;;;;;5032405;28;20427;-81
2023/02/12 07:29:11;;;;;;;25.55;13.07;;;6.70;99.90;;;;;;5031984;28;20900;-82
2023/02/12 07:31:38;;;;;;;24.42;12.45;;;6.70;99.90;;;;;;5032596;28;20898;-82
2023/02/12 07:34:04;;;;;;;25.98;12.98;;;6.70;99.90;;;;;;5032301;28;20384;-81
2023/02/12 07:36:31;;;;;;;18.07;9.77;;;6.80;99.90;;;;;;5032380;28;20751;-81
2023/02/12 07:38:57;;;;;;;22.30;11.23;;;7.00;99.90;;;;;;5031992;28;20389;-82
2023/02/12 07:41:29;;;;;;;30.23;12.55;;;7.20;99.90;;;;;;5032826;28;20405;-83
2023/02/12 07:43:57;;;;;;;31.48;14.23;;;7.20;99.90;;;;;;5031942;28;20377;-80
2023/02/12 07:46:28;;;;;;;32.05;13.15;;;6.90;99.90;;;;;;5037518;28;20453;-82
2023/02/12 07:48:56;;;;;;;34.13;13.40;;;6.90;99.90;;;;;;5051987;28;21373;-82
2023/02/12 07:51:22;;;;;;;27.48;12.40;;;6.90;99.90;;;;;;5051544;28;20368;-82
2023/02/12 07:53:48;;;;;;;32.58;13.68;;;7.00;99.90;;;;;;5051162;28;20466;-81
2023/02/12 07:56:16;;;;;;;35.72;14.18;;;6.90;99.90;;;;;;5043716;28;20463;-82
2023/02/12 07:58:44;;;;;;;32.63;14.13;;;6.90;99.90;;;;;;5029564;28;20472;-83
2023/02/12 08:01:14;;;;;;;26.38;12.60;;;7.00;99.90;;;;;;5030470;28;20401;-82
2023/02/12 08:03:39;;;;;;;19.52;11.23;;;7.20;99.90;;;;;;5029431;28;20405;-80
2023/02/12 08:06:11;;;;;;;21.50;11.50;;;7.40;99.90;;;;;;5029107;28;20417;-83
2023/02/12 08:08:41;;;;;;;30.65;13.10;;;7.50;99.90;;;;;;5049313;28;20559;-81
2023/02/12 08:11:08;;;;;;;19.55;10.90;;;7.50;99.90;;;;;;5044685;28;20804;-82
2023/02/12 08:13:37;;;;;;;28.13;11.63;;;7.50;99.90;;;;;;5031888;28;20385;-82
2023/02/12 08:16:05;;;;;;;31.58;14.35;;;7.60;99.90;;;;;;5031870;28;20439;-82
2023/02/12 08:18:31;;;;;;;21.10;11.63;;;7.40;99.90;;;;;;5030525;28;20384;-83
2023/02/12 08:21:07;;;;;;;21.77;11.00;;;7.40;99.90;;;;;;5031983;28;20417;-82
2023/02/12 08:23:34;;;;;;;25.63;13.07;;;7.60;99.90;;;;;;5039715;28;20425;-83
2023/02/12 08:26:13;;;;;;;24.70;11.90;;;7.50;99.90;;;;;;5051903;28;20864;-82
2023/02/12 08:28:42;;;;;;;29.77;13.63;;;7.70;99.90;;;;;;5051663;28;20380;-81
2023/02/12 08:31:14;;;;;;;25.50;12.25;;;7.50;99.90;;;;;;5051632;28;20372;-81
2023/02/12 08:33:40;;;;;;;24.13;12.93;;;7.60;99.90;;;;;;5050797;28;20379;-83
2023/02/12 08:36:08;;;;;;;35.88;15.25;;;7.80;99.90;;;;;;5051431;28;20368;-82
2023/02/12 08:38:35;;;;;;;32.38;14.35;;;7.60;99.90;;;;;;5034221;28;20369;-82
2023/02/12 08:41:03;;;;;;;36.67;15.27;;;7.70;99.90;;;;;;5031786;28;20390;-83
2023/02/12 08:43:28;;;;;;;33.40;15.02;;;7.60;99.90;;;;;;5031110;28;20378;-83
2023/02/12 08:45:59;;;;;;;29.47;14.73;;;7.70;99.90;;;;;;5029834;28;20428;-82
2023/02/12 08:48:25;;;;;;;41.28;16.92;;;7.60;99.90;;;;;;5029601;28;20748;-83
2023/02/12 08:50:50;;;;;;;43.22;17.90;;;7.70;99.90;;;;;;5029932;28;20378;-82
2023/02/12 08:53:16;;;;;;;49.63;19.73;;;7.60;99.90;;;;;;5029547;28;20918;-83
2023/02/12 08:55:48;;;;;;;45.90;19.40;;;7.40;99.90;;;;;;5029216;28;20474;-82
2023/02/12 08:58:14;;;;;;;41.30;20.08;;;7.60;99.90;;;;;;5029141;28;20381;-82
2023/02/12 09:00:39;;;;;;;45.97;20.08;;;7.70;99.90;;;;;;5042629;28;20917;-81
2023/02/12 09:03:05;;;;;;;39.47;18.50;;;7.70;99.90;;;;;;5025769;28;20752;-82
2023/02/12 09:05:31;;;;;;;39.33;19.33;;;7.70;99.90;;;;;;5027696;28;20404;-80
2023/02/12 09:07:56;;;;;;;40.47;19.30;;;7.80;99.90;;;;;;5029306;28;20378;-81
2023/02/12 09:10:22;;;;;;;44.67;20.33;;;7.80;99.90;;;;;;5029917;28;20389;-83
2023/02/12 09:12:47;;;;;;;47.90;21.43;;;7.60;99.90;;;;;;5030581;28;20388;-81
2023/02/12 09:15:13;;;;;;;42.55;21.88;;;7.60;99.90;;;;;;5028941;28;20397;-83
2023/02/12 09:17:42;;;;;;;40.78;20.63;;;7.60;99.90;;;;;;5022174;28;20439;-83
2023/02/12 09:20:08;;;;;;;51.70;25.08;;;7.80;99.90;;;;;;5029075;28;20895;-82
2023/02/12 09:22:36;;;;;;;49.60;24.27;;;7.70;99.90;;;;;;5024082;28;20408;-82
2023/02/12 09:25:03;;;;;;;53.28;25.35;;;7.70;99.90;;;;;;5042041;28;21125;-83
2023/02/12 09:27:28;;;;;;;48.80;24.57;;;7.70;99.90;;;;;;5032573;28;20926;-82
2023/02/12 09:29:54;;;;;;;49.20;24.13;;;7.80;99.90;;;;;;5027349;28;20440;-81
2023/02/12 09:32:20;;;;;;;48.95;23.65;;;8.00;99.90;;;;;;5036281;28;20731;-81
2023/02/12 09:34:45;;;;;;;44.70;21.97;;;8.10;99.90;;;;;;5038776;28;20421;-80
2023/02/12 09:37:11;;;;;;;36.63;20.70;;;8.30;99.90;;;;;;5043668;28;20384;-81
2023/02/12 09:39:37;;;;;;;40.83;21.77;;;8.30;99.90;;;;;;5033901;28;20724;-81
2023/02/12 09:42:16;;;;;;;44.00;21.53;;;8.30;99.90;;;;;;5030556;28;20378;-81
2023/02/12 09:44:52;;;;;;;42.38;22.02;;;8.30;99.90;;;;;;5023669;28;20413;-82
2023/02/12 09:47:48;;;;;;;38.08;21.20;;;8.40;99.90;;;;;;5044814;28;20399;-82
2023/02/12 09:50:29;;;;;;;42.90;21.42;;;8.30;99.90;;;;;;5014827;28;20464;-82
2023/02/12 09:52:57;;;;;;;42.05;21.92;;;8.10;99.90;;;;;;5040949;28;20391;-82
2023/02/12 09:55:28;;;;;;;46.65;22.55;;;8.10;99.90;;;;;;5035008;28;20394;-78
2023/02/12 09:57:54;;;;;;;42.25;22.38;;;8.00;99.90;;;;;;5031088;28;20397;-78
2023/02/12 10:00:26;;;;;;;44.03;22.35;;;8.10;99.90;;;;;;5037941;28;20389;-76
2023/02/12 10:02:54;;;;;;;44.63;21.52;;;8.10;99.90;;;;;;5029825;28;20508;-77
2023/02/12 10:05:26;;;;;;;43.97;21.98;;;8.20;99.90;;;;;;5034464;28;20478;-82
2023/02/12 10:08:09;;;;;;;39.67;21.17;;;8.10;99.90;;;;;;5044592;28;20480;-82
2023/02/12 10:11:05;;;;;;;39.07;20.50;;;8.10;99.90;;;;;;5024400;28;20479;-82
2023/02/12 10:13:58;;;;;;;42.33;21.00;;;8.00;99.90;;;;;;5024041;28;20405;-83
2023/02/12 10:16:50;;;;;;;38.08;20.38;;;8.00;99.90;;;;;;5034372;28;20384;-83
2023/02/12 10:19:31;;;;;;;38.30;20.80;;;8.00;99.90;;;;;;5021325;28;20652;-82
2023/02/12 10:22:31;;;;;;;30.98;18.08;;;7.90;99.90;;;;;;5025431;28;20435;-82
2023/02/12 10:25:08;;;;;;;30.45;17.15;;;8.20;99.90;;;;;;5022556;28;20409;-82
2023/02/12 10:27:46;;;;;;;30.33;16.93;;;8.10;99.90;;;;;;5026288;28;20423;-83
2023/02/12 10:30:44;;;;;;;31.15;17.60;;;8.10;99.90;;;;;;5026681;28;21674;-82
2023/02/12 10:33:35;;;;;;;36.63;19.48;;;8.10;99.90;;;;;;5002148;28;20405;-83
2023/02/12 10:36:13;;;;;;;34.00;17.67;;;8.00;99.90;;;;;;5029075;28;20436;-82
2023/02/12 10:38:44;;;;;;;34.38;17.92;;;8.20;99.90;;;;;;5026757;28;20377;-82
2023/02/12 10:41:13;;;;;;;37.25;18.58;;;8.10;99.90;;;;;;5027558;28;20887;-82
2023/02/12 10:43:39;;;;;;;34.42;18.15;;;8.10;99.90;;;;;;5044808;28;20376;-82
2023/02/12 10:46:05;;;;;;;36.23;18.70;;;8.20;99.90;;;;;;5032555;28;20406;-81
2023/02/12 10:48:37;;;;;;;33.70;17.85;;;8.20;99.90;;;;;;5044373;28;20407;-82
2023/02/12 10:51:24;;;;;;;34.57;17.67;;;8.10;99.90;;;;;;5036092;28;20464;-82
2023/02/12 10:53:49;;;;;;;32.10;16.63;;;8.10;99.90;;;;;;5037309;28;20381;-83
2023/02/12 10:56:18;;;;;;;33.00;16.85;;;8.10;99.90;;;;;;5042959;28;20918;-81
2023/02/12 10:58:58;;;;;;;31.58;18.13;;;8.10;99.90;;;;;;5037624;28;20407;-82
2023/02/12 11:01:34;;;;;;;30.83;17.20;;;8.20;99.90;;;;;;5032639;28;20385;-82
2023/02/12 11:04:29;;;;;;;30.80;16.90;;;8.10;99.90;;;;;;5033969;28;20402;-80
2023/02/12 11:07:04;;;;;;;27.00;15.63;;;8.20;99.90;;;;;;5040314;28;20715;-82
2023/02/12 11:09:35;;;;;;;24.95;14.15;;;8.20;99.90;;;;;;5031733;28;20417;-82
2023/02/12 11:12:05;;;;;;;24.30;14.30;;;8.10;99.90;;;;;;5041835;28;20416;-81
2023/02/12 11:14:31;;;;;;;26.75;14.75;;;8.20;99.90;;;;;;5035982;28;21000;-82
2023/02/12 11:17:01;;;;;;;26.50;14.98;;;8.10;99.90;;;;;;5035779;28;20797;-82
2023/02/12 11:19:30;;;;;;;25.75;14.23;;;8.00;99.90;;;;;;5043366;28;20921;-82
2023/02/12 11:22:29;;;;;;;25.95;14.50;;;8.00;99.90;;;;;;5032117;28;20375;-82
2023/02/12 11:25:15;;;;;;;22.25;12.77;;;8.10;99.90;;;;;;4995676;28;20395;-81
2023/02/12 11:27:41;;;;;;;20.77;13.25;;;8.30;99.90;;;;;;5034143;28;20759;-81
2023/02/12 11:30:21;;;;;;;20.58;12.23;;;8.30;99.90;;;;;;5040053;28;20387;-82
2023/02/12 11:32:48;;;;;;;16.58;11.10;;;8.50;99.90;;;;;;5027333;28;20405;-80
2023/02/12 11:35:24;;;;;;;16.27;10.48;;;8.60;99.90;;;;;;5026054;28;20393;-82
2023/02/12 11:37:55;;;;;;;13.07;9.57;;;8.60;99.90;;;;;;5028361;28;20408;-82
2023/02/12 11:40:25;;;;;;;13.70;9.38;;;8.70;99.90;;;;;;5025462;28;20395;-83
2023/02/12 11:42:59;;;;;;;13.60;8.80;;;8.60;99.90;;;;;;5037437;28;20807;-81
2023/02/12 11:45:55;;;;;;;11.20;8.43;;;8.70;99.90;;;;;;5024883;28;20984;-82
2023/02/12 11:48:36;;;;;;;10.80;7.85;;;8.90;99.90;;;;;;5028009;28;20395;-81
2023/02/12 11:51:04;;;;;;;10.63;7.35;;;9.00;99.90;;;;;;5025329;28;20919;-82
2023/02/12 11:53:36;;;;;;;9.48;7.53;;;9.20;99.90;;;;;;5025353;28;20436;-82
2023/02/12 11:56:05;;;;;;;10.90;8.32;;;9.40;99.90;;;;;;5028550;28;20400;-82
2023/02/12 11:58:31;;;;;;;10.48;8.02;;;9.60;99.90;;;;;;5015844;28;20419;-82
2023/02/12 12:01:03;;;;;;;10.55;7.28;;;9.70;99.90;;;;;;5026047;28;20420;-83
2023/02/12 12:03:51;;;;;;;11.40;7.43;;;10.00;99.90;;;;;;5027707;28;20393;-83
2023/02/12 12:06:36;;;;;;;9.30;6.97;;;10.10;99.90;;;;;;5035063;28;20404;-84
2023/02/12 12:09:09;;;;;;;8.53;6.33;;;9.80;99.90;;;;;;5033543;28;20525;-82
2023/02/12 12:11:34;;;;;;;10.13;6.32;;;9.70;99.90;;;;;;5036019;28;20460;-82
2023/02/12 12:14:22;;;;;;;9.60;6.47;;;9.80;99.90;;;;;;5034735;28;20385;-82
2023/02/12 12:19:57;;;;;;;11.10;6.95;;;9.90;99.90;;;;;;5034907;28;20847;-83
2023/02/12 12:22:59;;;;;;;7.90;6.18;;;9.70;99.90;;;;;;5058089;28;20393;-83
2023/02/12 12:25:36;;;;;;;7.63;5.78;;;10.20;99.90;;;;;;5040080;28;20379;-82
2023/02/12 12:28:42;;;;;;;8.52;5.38;;;10.20;99.90;;;;;;5035684;28;20405;-81
2023/02/12 12:31:07;;;;;;;9.15;5.90;;;10.30;99.90;;;;;;5020930;28;20398;-83
2023/02/12 12:33:38;;;;;;;6.45;5.40;;;10.40;99.90;;;;;;5030741;28;20468;-83
2023/02/12 12:36:30;;;;;;;7.33;5.50;;;10.60;99.90;;;;;;5029106;28;20705;-84
2023/02/12 12:39:19;;;;;;;7.60;5.05;;;10.30;99.90;;;;;;5028261;28;20410;-82
2023/02/12 12:41:50;;;;;;;7.10;5.13;;;10.40;99.90;;;;;;5027426;28;20377;-82
2023/02/12 12:44:46;;;;;;;6.72;4.97;;;10.20;99.90;;;;;;5028246;28;20401;-82
2023/02/12 12:47:17;;;;;;;7.45;5.55;;;10.50;99.90;;;;;;5028600;28;20476;-82
2023/02/12 12:50:04;;;;;;;8.17;5.77;;;10.60;99.90;;;;;;5030311;28;20385;-82
2023/02/12 12:52:29;;;;;;;7.28;5.47;;;10.50;99.90;;;;;;5026564;28;21008;-82
2023/02/12 12:55:36;;;;;;;8.00;5.70;;;10.40;99.90;;;;;;5030742;28;20412;-82
2023/02/12 12:58:26;;;;;;;9.05;6.20;;;10.30;99.90;;;;;;4968382;28;20907;-83
2023/02/12 13:01:18;;;;;;;7.65;5.78;;;10.10;99.90;;;;;;5025291;28;20484;-81
2023/02/12 13:04:18;;;;;;;8.20;6.57;;;10.00;99.90;;;;;;5029832;28;20378;-82
2023/02/12 13:07:02;;;;;;;9.52;6.82;;;10.10;99.90;;;;;;5027790;28;20488;-82
2023/02/12 13:10:00;;;;;;;9.52;6.53;;;10.00;99.90;;;;;;5026276;28;20487;-82
2023/02/12 13:12:34;;;;;;;10.43;6.45;;;10.10;99.90;;;;;;4998324;28;20382;-83